CYER

Fort Severn Airport

Fort Severn, Ontario, Canada
METAR CYER 231000Z AUTO 16004KT 9SM FEW120 BKN150 OVC180 M04/M06 A3023 RMK SLP240
Observed Flight Rules
May-23 @ 10:00 UTC (an hour ago) Visual Flight Rules
Wind Visibility Clouds
160° at 4 knots 9 miles
  • Few at 12,000' AGL
  • Broken at 15,000' AGL
  • Overcast at 18,000' AGL
Temperatures Readings
Current -4°C / 25°F
Dewpoint -6°C / 21°F
Humidity 86%
Altimeter 30.23" Hg
Pressure 1024 hPa
Elevation 16
METAR CYER 231000Z AUTO 16004KT 9SM FEW120 BKN150 OVC180 M04/M06 A3023 RMK SLP240
Observed Flight Rules
May-23 @ 10:00 UTC
(an hour ago)
VFR
Wind Visibility
160° at 4 knots 9 miles
Clouds
  • Few at 12,000' AGL
  • Broken at 15,000' AGL
  • Overcast at 18,000' AGL
Temperature Dewpoint
-4°C / 25°F -6°C / 21°F
Humidity Altimeter Pressure
86% 30.23" Hg 1024 hPa